createdAt,value
2023-02-12T00:00:57.417Z,18.98
2023-02-12T00:06:02.257Z,19.35
2023-02-12T00:11:15.220Z,19.15
2023-02-12T00:16:19.925Z,19.05
2023-02-12T00:21:22.860Z,19.75
2023-02-12T00:26:24.912Z,19.33
2023-02-12T00:31:28.995Z,19.90
2023-02-12T00:36:33.461Z,19.30
2023-02-12T00:41:35.061Z,19.92
2023-02-12T00:46:36.793Z,20.30
2023-02-12T00:51:38.370Z,20.20
2023-02-12T00:56:40.084Z,18.77
2023-02-12T01:01:41.688Z,19.13
2023-02-12T01:06:43.331Z,20.92
2023-02-12T01:11:45.023Z,19.50
2023-02-12T01:16:46.618Z,20.55
2023-02-12T01:21:48.255Z,19.42
2023-02-12T01:26:50.148Z,19.67
2023-02-12T01:31:52.367Z,18.55
2023-02-12T01:36:54.058Z,20.20
2023-02-12T01:41:55.727Z,19.55
2023-02-12T01:47:06.672Z,19.60
2023-02-12T01:52:09.868Z,19.13
2023-02-12T01:57:12.611Z,19.70
2023-02-12T02:02:14.579Z,20.05
2023-02-12T02:07:16.178Z,19.15
2023-02-12T02:12:36.692Z,20.55
2023-02-12T02:17:41.524Z,20.90
2023-02-12T02:22:52.145Z,19.90
2023-02-12T02:28:12.364Z,20.45
2023-02-12T02:33:21.013Z,20.40
2023-02-12T02:38:27.400Z,20.50
2023-02-12T02:43:35.470Z,19.77
2023-02-12T02:48:40.757Z,20.08
2023-02-12T02:53:56.962Z,20.10
2023-02-12T02:59:02.324Z,20.58
2023-02-12T03:04:05.873Z,20.65
2023-02-12T03:09:15.585Z,19.80
2023-02-12T03:14:29.965Z,20.70
2023-02-12T03:19:37.129Z,19.77
2023-02-12T03:24:46.889Z,19.95
2023-02-12T03:29:48.664Z,20.85
2023-02-12T03:34:50.218Z,18.73
2023-02-12T03:39:59.027Z,20.10
2023-02-12T03:45:09.446Z,20.58
2023-02-12T03:50:32.558Z,20.00
2023-02-12T03:55:37.236Z,20.73
2023-02-12T04:00:39.211Z,21.90
2023-02-12T04:05:40.781Z,22.17
2023-02-12T04:11:11.238Z,20.90
2023-02-12T04:16:29.950Z,22.73
2023-02-12T04:21:37.343Z,21.85
2023-02-12T04:26:54.193Z,24.15
2023-02-12T04:31:58.803Z,24.08
2023-02-12T04:37:07.952Z,24.17
2023-02-12T04:42:09.632Z,23.35
2023-02-12T04:47:15.570Z,22.65
2023-02-12T04:52:17.176Z,23.13
2023-02-12T04:57:18.761Z,23.08
2023-02-12T05:02:20.352Z,22.88
2023-02-12T05:07:21.917Z,23.25
2023-02-12T05:12:23.538Z,23.40
2023-02-12T05:17:25.218Z,22.50
2023-02-12T05:22:26.785Z,24.38
2023-02-12T05:27:28.413Z,22.73
2023-02-12T05:32:30.006Z,23.98
2023-02-12T05:37:34.895Z,23.98
2023-02-12T05:42:36.421Z,22.45
2023-02-12T05:47:37.983Z,23.00
2023-02-12T05:52:39.579Z,21.45
2023-02-12T05:57:41.174Z,22.60
2023-02-12T06:02:42.902Z,23.05
2023-02-12T06:07:44.555Z,21.48
2023-02-12T06:12:46.119Z,21.38
2023-02-12T06:17:47.676Z,21.52
2023-02-12T06:22:49.282Z,21.15
2023-02-12T06:27:50.834Z,22.50
2023-02-12T06:32:52.448Z,21.83
2023-02-12T06:37:54.051Z,21.30
2023-02-12T06:42:56.382Z,22.48
2023-02-12T06:47:57.939Z,20.92
2023-02-12T06:52:59.710Z,20.85
2023-02-12T06:58:01.309Z,19.80
2023-02-12T07:03:02.866Z,19.23
2023-02-12T07:08:04.458Z,18.67
2023-02-12T07:13:06.190Z,19.00
2023-02-12T07:18:07.742Z,18.65
2023-02-12T07:23:11.862Z,18.95
2023-02-12T07:28:13.450Z,18.58
2023-02-12T07:33:15.234Z,18.20
2023-02-12T07:38:16.835Z,16.55
2023-02-12T07:43:18.427Z,17.00
2023-02-12T07:48:19.989Z,17.23
2023-02-12T07:53:21.552Z,17.85
2023-02-12T07:58:23.103Z,16.92
2023-02-12T08:03:24.720Z,18.20
2023-02-12T08:08:26.277Z,17.75
2023-02-12T08:13:27.834Z,17.98
2023-02-12T08:18:31.444Z,20.00
2023-02-12T08:23:33.734Z,19.35
2023-02-12T08:28:36.594Z,20.13
2023-02-12T08:33:38.289Z,18.50
2023-02-12T08:38:40.386Z,19.20
2023-02-12T08:43:42.824Z,19.52
2023-02-12T08:48:44.955Z,18.77
2023-02-12T08:53:47.917Z,17.63
2023-02-12T08:58:49.729Z,17.23
2023-02-12T09:03:52.255Z,18.35
2023-02-12T09:08:54.587Z,17.55
2023-02-12T09:14:03.443Z,19.15
2023-02-12T09:19:05.090Z,18.15
2023-02-12T09:24:07.300Z,17.92
2023-02-12T09:29:08.965Z,17.70
2023-02-12T09:34:10.600Z,17.08
2023-02-12T09:39:12.148Z,16.35
2023-02-12T09:44:25.859Z,17.10
2023-02-12T09:49:49.447Z,16.83
2023-02-12T09:54:51.429Z,14.45
2023-02-12T09:59:58.446Z,14.60
2023-02-12T10:05:02.001Z,14.32
2023-02-12T10:10:43.076Z,13.43
2023-02-12T10:15:47.902Z,12.40
2023-02-12T10:20:58.580Z,11.82
2023-02-12T10:26:09.367Z,11.38
2023-02-12T10:31:27.393Z,9.75
2023-02-12T10:36:41.777Z,9.57
2023-02-12T10:42:04.148Z,9.95
2023-02-12T10:47:06.237Z,9.30
2023-02-12T10:52:26.592Z,9.63
2023-02-12T10:57:30.692Z,8.00
2023-02-12T11:02:33.975Z,8.30
2023-02-12T11:07:47.688Z,7.65
2023-02-12T11:12:50.375Z,8.05
2023-02-12T11:18:04.517Z,7.03
2023-02-12T11:23:33.579Z,6.78
2023-02-12T11:28:36.761Z,7.65
2023-02-12T11:33:39.055Z,7.63
2023-02-12T11:38:58.951Z,6.72
2023-02-12T11:44:01.193Z,6.30
2023-02-12T11:49:02.820Z,6.20
2023-02-12T11:54:06.281Z,5.63
2023-02-12T11:59:17.953Z,6.25
2023-02-12T12:04:20.550Z,6.00
2023-02-12T12:09:30.176Z,5.93
2023-02-12T12:15:19.711Z,6.22
2023-02-12T12:20:25.282Z,5.95
2023-02-12T12:25:28.151Z,5.78
2023-02-12T12:30:48.171Z,6.10
2023-02-12T12:35:49.928Z,5.82
2023-02-12T12:41:13.305Z,5.13
2023-02-12T12:46:21.102Z,6.47
2023-02-12T12:51:48.907Z,5.70
2023-02-12T12:57:01.311Z,5.55
2023-02-12T13:02:19.084Z,5.72
2023-02-12T13:07:45.077Z,5.22
2023-02-12T13:12:59.885Z,5.93
2023-02-12T13:18:11.869Z,6.05
2023-02-12T13:23:28.009Z,6.53
2023-02-12T13:28:35.081Z,5.97
2023-02-12T13:33:43.513Z,5.78
2023-02-12T13:38:50.881Z,5.93
2023-02-12T13:44:05.002Z,5.38
2023-02-12T13:49:30.667Z,6.18
2023-02-12T13:54:57.454Z,5.97
2023-02-12T13:59:59.967Z,5.80
2023-02-12T14:05:03.570Z,5.03
2023-02-12T14:10:06.654Z,4.53
2023-02-12T14:15:17.028Z,4.70
2023-02-12T14:20:33.152Z,4.22
2023-02-12T14:25:49.493Z,4.60
2023-02-12T14:31:19.022Z,4.32
2023-02-12T14:36:32.969Z,4.38
2023-02-12T14:41:39.793Z,4.60
2023-02-12T14:46:55.450Z,5.20
2023-02-12T14:52:06.570Z,4.80
2023-02-12T14:57:12.629Z,5.55
2023-02-12T15:02:21.670Z,6.30
2023-02-12T15:07:29.918Z,5.68
2023-02-12T15:12:57.853Z,5.90
2023-02-12T15:18:16.338Z,5.65
2023-02-12T15:23:38.994Z,6.55
2023-02-12T15:28:40.976Z,6.05
2023-02-12T15:33:46.600Z,5.95
2023-02-12T15:38:50.720Z,6.22
2023-02-12T15:43:52.321Z,6.00
2023-02-12T15:48:55.618Z,6.20
2023-02-12T15:53:58.745Z,6.78
2023-02-12T15:59:01.660Z,7.40
2023-02-12T16:04:06.053Z,6.88
2023-02-12T16:09:12.967Z,6.72
2023-02-12T16:14:31.423Z,6.63
2023-02-12T16:19:33.637Z,7.00
2023-02-12T16:24:38.322Z,7.35
2023-02-12T16:29:45.049Z,7.78
2023-02-12T16:34:46.643Z,7.70
2023-02-12T16:39:53.972Z,7.88
2023-02-12T16:44:56.083Z,8.00
2023-02-12T16:50:00.216Z,7.85
2023-02-12T16:55:01.887Z,7.53
2023-02-12T17:00:08.295Z,7.63
2023-02-12T17:05:10.935Z,7.50
2023-02-12T17:10:16.754Z,7.40
2023-02-12T17:15:25.147Z,7.55
2023-02-12T17:20:26.691Z,7.13
2023-02-12T17:25:30.151Z,8.18
2023-02-12T17:30:32.403Z,8.13
2023-02-12T17:35:33.991Z,9.35
2023-02-12T17:40:36.612Z,8.88
2023-02-12T17:45:43.032Z,9.73
2023-02-12T17:50:44.659Z,10.00
2023-02-12T17:55:46.451Z,10.10
2023-02-12T18:00:48.150Z,11.27
2023-02-12T18:05:49.754Z,11.77
2023-02-12T18:10:51.355Z,11.00
2023-02-12T18:15:52.907Z,11.82
2023-02-12T18:20:54.773Z,12.38
2023-02-12T18:25:56.671Z,11.98
2023-02-12T18:30:58.911Z,12.63
2023-02-12T18:36:01.938Z,12.15
2023-02-12T18:41:11.781Z,11.80
2023-02-12T18:46:16.686Z,12.13
2023-02-12T18:51:24.348Z,12.82
2023-02-12T18:56:25.903Z,12.80
2023-02-12T19:01:28.546Z,12.57
2023-02-12T19:06:31.678Z,13.30
2023-02-12T19:11:33.543Z,13.32
2023-02-12T19:16:35.194Z,12.80
2023-02-12T19:21:39.540Z,13.15
2023-02-12T19:26:41.720Z,13.18
2023-02-12T19:31:45.156Z,11.77
2023-02-12T19:36:48.080Z,12.82
2023-02-12T19:41:49.930Z,12.40
2023-02-12T19:46:51.988Z,12.18
2023-02-12T19:51:53.774Z,12.63
2023-02-12T19:56:55.546Z,12.15
2023-02-12T20:01:57.218Z,12.45
2023-02-12T20:06:58.844Z,13.05
2023-02-12T20:12:00.497Z,12.40
2023-02-12T20:17:02.134Z,12.73
2023-02-12T20:22:04.580Z,12.10
2023-02-12T20:27:06.214Z,12.35
2023-02-12T20:32:07.832Z,12.85
2023-02-12T20:37:09.501Z,12.80
2023-02-12T20:42:12.228Z,12.07
2023-02-12T20:47:13.818Z,12.75
2023-02-12T20:52:15.427Z,12.13
2023-02-12T20:57:17.603Z,12.80
2023-02-12T21:02:19.291Z,12.60
2023-02-12T21:07:20.925Z,13.88
2023-02-12T21:12:22.599Z,14.00
2023-02-12T21:17:24.641Z,13.63
2023-02-12T21:22:26.268Z,12.98
2023-02-12T21:27:27.968Z,13.63
2023-02-12T21:32:29.669Z,13.77
2023-02-12T21:37:31.383Z,15.20
2023-02-12T21:42:33.012Z,14.65
2023-02-12T21:47:34.896Z,13.60
2023-02-12T21:52:36.451Z,14.23
2023-02-12T21:57:37.989Z,14.70
2023-02-12T22:02:39.687Z,13.40
2023-02-12T22:07:41.325Z,13.20
2023-02-12T22:12:42.939Z,14.07
2023-02-12T22:17:44.538Z,12.10
2023-02-12T22:22:46.158Z,14.63
2023-02-12T22:27:47.706Z,14.38
2023-02-12T22:32:49.394Z,13.35
2023-02-12T22:37:50.993Z,14.38
2023-02-12T22:42:52.594Z,13.38
2023-02-12T22:47:54.189Z,10.30
2023-02-12T22:52:55.803Z,9.65
2023-02-12T22:57:58.330Z,11.93
2023-02-12T23:02:59.970Z,12.13
2023-02-12T23:08:01.651Z,11.38
2023-02-12T23:13:03.267Z,13.68
2023-02-12T23:18:04.877Z,12.77
2023-02-12T23:23:06.548Z,14.23
2023-02-12T23:28:08.250Z,13.60
2023-02-12T23:33:09.891Z,12.70
2023-02-12T23:38:11.932Z,13.43
2023-02-12T23:43:13.666Z,13.43
2023-02-12T23:48:15.247Z,12.32
2023-02-12T23:53:18.929Z,12.90
2023-02-12T23:58:20.518Z,12.43
